createdAt,value
2022-08-02T00:00:18.607Z,74.86
2022-08-02T00:02:46.681Z,74.42
2022-08-02T00:05:14.149Z,74.96
2022-08-02T00:07:42.390Z,74.53
2022-08-02T00:10:10.949Z,74.99
2022-08-02T00:12:38.883Z,75.00
2022-08-02T00:15:11.191Z,76.12
2022-08-02T00:17:43.719Z,75.08
2022-08-02T00:20:11.909Z,74.97
2022-08-02T00:22:38.902Z,75.17
2022-08-02T00:25:05.962Z,75.26
2022-08-02T00:27:32.645Z,75.69
2022-08-02T00:29:59.244Z,75.05
2022-08-02T00:32:25.854Z,75.12
2022-08-02T00:34:52.546Z,75.38
2022-08-02T00:37:19.181Z,75.83
2022-08-02T00:39:45.985Z,75.33
2022-08-02T00:42:15.209Z,75.34
2022-08-02T00:44:42.753Z,75.49
2022-08-02T00:47:09.528Z,76.30
2022-08-02T00:49:36.194Z,75.69
2022-08-02T00:52:03.671Z,76.20
2022-08-02T00:54:30.314Z,76.64
2022-08-02T00:56:56.897Z,76.46
2022-08-02T00:59:23.602Z,76.67
2022-08-02T01:01:55.699Z,75.87
2022-08-02T01:04:31.311Z,76.19
2022-08-02T01:07:13.012Z,76.33
2022-08-02T01:09:44.818Z,76.86
2022-08-02T01:12:12.234Z,76.53
2022-08-02T01:14:42.086Z,76.94
2022-08-02T01:17:20.885Z,76.63
2022-08-02T01:20:29.090Z,76.17
2022-08-02T01:23:17.371Z,76.78
2022-08-02T01:26:05.750Z,77.84
2022-08-02T01:28:40.826Z,77.82
2022-08-02T01:31:39.211Z,77.37
2022-08-02T01:34:44.045Z,77.02
2022-08-02T01:37:29.733Z,77.74
2022-08-02T01:40:06.800Z,77.23
2022-08-02T01:42:34.302Z,77.55
2022-08-02T01:45:02.422Z,77.23
2022-08-02T01:47:33.545Z,77.70
2022-08-02T01:50:02.612Z,77.20
2022-08-02T01:52:32.602Z,77.43
2022-08-02T01:55:07.057Z,77.38
2022-08-02T01:57:48.980Z,77.70
2022-08-02T02:00:17.842Z,76.97
2022-08-02T02:02:47.805Z,76.72
2022-08-02T02:05:17.036Z,76.98
2022-08-02T02:07:45.691Z,76.19
2022-08-02T02:10:15.717Z,75.93
2022-08-02T02:12:44.728Z,76.10
2022-08-02T02:15:12.909Z,75.56
2022-08-02T02:18:11.401Z,76.00
2022-08-02T02:20:29.926Z,76.36
2022-08-02T02:22:56.694Z,76.75
2022-08-02T02:25:27.541Z,76.53
2022-08-02T02:28:04.969Z,76.36
2022-08-02T02:30:33.667Z,77.54
2022-08-02T02:33:03.388Z,77.40
2022-08-02T02:35:34.294Z,76.67
2022-08-02T02:38:04.390Z,76.87
2022-08-02T02:40:32.856Z,77.70
2022-08-02T02:43:01.557Z,78.01
2022-08-02T02:45:30.754Z,78.09
2022-08-02T02:47:59.341Z,77.93
2022-08-02T02:50:27.073Z,78.04
2022-08-02T02:52:54.343Z,77.71
2022-08-02T02:55:22.929Z,77.27
2022-08-02T02:57:50.436Z,77.90
2022-08-02T03:00:18.139Z,76.96
2022-08-02T03:02:45.991Z,77.66
2022-08-02T03:05:13.175Z,77.17
2022-08-02T03:07:40.301Z,77.10
2022-08-02T03:10:07.865Z,76.17
2022-08-02T03:12:36.379Z,76.31
2022-08-02T03:15:07.292Z,76.17
2022-08-02T03:17:45.174Z,76.18
2022-08-02T03:20:22.737Z,76.79
2022-08-02T03:22:50.295Z,75.89
2022-08-02T03:25:17.995Z,76.24
2022-08-02T03:27:44.697Z,77.15
2022-08-02T03:30:13.405Z,76.87
2022-08-02T03:32:44.206Z,76.26
2022-08-02T03:35:13.699Z,76.32
2022-08-02T03:37:40.984Z,75.64
2022-08-02T03:40:09.801Z,75.85
2022-08-02T03:42:36.774Z,75.25
2022-08-02T03:45:08.398Z,75.45
2022-08-02T03:47:38.221Z,75.47
2022-08-02T03:50:07.632Z,75.88
2022-08-02T03:52:34.709Z,75.19
2022-08-02T03:55:01.403Z,75.29
2022-08-02T03:57:28.131Z,76.19
2022-08-02T03:59:54.792Z,75.40
2022-08-02T04:02:21.386Z,75.68
2022-08-02T04:04:48.305Z,75.63
2022-08-02T04:07:14.934Z,76.09
2022-08-02T04:10:01.540Z,76.49
2022-08-02T04:12:28.123Z,76.52
2022-08-02T04:14:54.917Z,76.53
2022-08-02T04:17:23.510Z,76.18
2022-08-02T04:20:10.745Z,76.72
2022-08-02T04:22:47.593Z,76.73
2022-08-02T04:25:17.519Z,76.73
2022-08-02T04:27:49.867Z,77.75
2022-08-02T04:30:19.139Z,77.34
2022-08-02T04:32:46.213Z,77.32
2022-08-02T04:35:21.133Z,77.89
2022-08-02T04:38:09.390Z,77.39
2022-08-02T04:40:36.109Z,77.09
2022-08-02T04:43:02.830Z,77.33
2022-08-02T04:45:30.351Z,77.56
2022-08-02T04:48:04.672Z,77.61
2022-08-02T04:50:32.385Z,76.48
2022-08-02T04:52:58.933Z,76.17
2022-08-02T04:55:28.650Z,76.63
2022-08-02T04:57:56.357Z,76.99
2022-08-02T05:00:23.625Z,75.73
2022-08-02T05:02:50.624Z,75.67
2022-08-02T05:05:17.360Z,75.92
2022-08-02T05:07:44.523Z,75.35
2022-08-02T05:10:11.209Z,75.06
2022-08-02T05:12:38.636Z,74.38
2022-08-02T05:15:06.235Z,74.37
2022-08-02T05:17:36.134Z,74.17
2022-08-02T05:20:03.162Z,73.63
2022-08-02T05:22:29.869Z,73.20
2022-08-02T05:24:56.512Z,72.51
2022-08-02T05:27:23.109Z,72.17
2022-08-02T05:29:57.150Z,71.96
2022-08-02T05:32:25.178Z,71.36
2022-08-02T05:34:53.227Z,71.62
2022-08-02T05:37:19.853Z,70.95
2022-08-02T05:39:55.486Z,69.98
2022-08-02T05:42:23.690Z,68.37
2022-08-02T05:44:50.556Z,66.68
2022-08-02T05:47:17.176Z,64.88
2022-08-02T05:49:43.929Z,64.60
2022-08-02T05:52:18.044Z,63.36
2022-08-02T05:54:50.336Z,62.28
2022-08-02T05:57:30.930Z,63.12
2022-08-02T06:00:08.543Z,61.15
2022-08-02T06:02:50.151Z,60.65
2022-08-02T06:05:20.155Z,61.07
2022-08-02T06:07:48.158Z,59.96
2022-08-02T06:10:17.036Z,60.63
2022-08-02T06:12:50.969Z,59.02
2022-08-02T06:15:19.671Z,57.52
2022-08-02T06:17:47.970Z,55.55
2022-08-02T06:20:15.657Z,55.61
2022-08-02T06:22:44.546Z,55.68
2022-08-02T06:25:50.227Z,55.13
2022-08-02T06:28:01.541Z,54.96
2022-08-02T06:30:29.754Z,55.51
2022-08-02T06:32:56.675Z,55.47
2022-08-02T06:35:29.586Z,55.49
2022-08-02T06:38:06.567Z,53.96
2022-08-02T06:40:40.734Z,54.81
2022-08-02T06:43:12.727Z,55.07
2022-08-02T06:45:40.271Z,54.09
2022-08-02T06:48:07.846Z,52.65
2022-08-02T06:50:38.205Z,53.24
2022-08-02T06:53:06.408Z,52.90
2022-08-02T06:55:33.115Z,52.87
2022-08-02T06:58:10.456Z,52.70
2022-08-02T07:00:37.167Z,53.60
2022-08-02T07:03:04.983Z,54.28
2022-08-02T07:05:31.875Z,52.93
2022-08-02T07:07:58.568Z,52.58
2022-08-02T07:10:25.321Z,52.59
2022-08-02T07:12:52.075Z,53.74
2022-08-02T07:15:18.671Z,52.62
2022-08-02T07:17:45.361Z,53.62
2022-08-02T07:20:13.500Z,54.33
2022-08-02T07:22:41.074Z,52.12
2022-08-02T07:25:08.969Z,50.57
2022-08-02T07:27:35.765Z,49.49
2022-08-02T07:30:02.428Z,48.96
2022-08-02T07:32:31.267Z,50.29
2022-08-02T07:34:59.751Z,52.86
2022-08-02T07:37:53.961Z,53.09
2022-08-02T07:40:20.256Z,53.84
2022-08-02T07:42:49.966Z,54.40
2022-08-02T07:45:16.746Z,54.94
2022-08-02T07:47:44.966Z,54.38
2022-08-02T07:50:14.248Z,55.21
2022-08-02T07:52:41.622Z,55.87
2022-08-02T07:55:09.957Z,56.40
2022-08-02T07:57:37.118Z,56.24
2022-08-02T08:00:04.817Z,55.59
2022-08-02T08:02:31.537Z,55.43
2022-08-02T08:04:58.322Z,54.82
2022-08-02T08:07:25.525Z,54.14
2022-08-02T08:09:56.303Z,53.93
2022-08-02T08:12:28.793Z,55.24
2022-08-02T08:14:55.527Z,55.57
2022-08-02T08:17:22.495Z,55.41
2022-08-02T08:19:51.007Z,54.68
2022-08-02T08:22:18.658Z,54.45
2022-08-02T08:24:45.472Z,54.05
2022-08-02T08:27:14.758Z,52.66
2022-08-02T08:33:29.054Z,53.07
2022-08-02T08:35:56.236Z,52.78
2022-08-02T08:38:23.230Z,51.95
2022-08-02T08:40:52.974Z,51.13
2022-08-02T08:43:20.554Z,51.99
2022-08-02T08:45:55.921Z,51.84
2022-08-02T08:48:31.203Z,51.68
2022-08-02T08:51:07.104Z,51.73
2022-08-02T08:53:56.836Z,52.20
2022-08-02T08:56:23.487Z,51.27
2022-08-02T08:58:50.098Z,49.53
2022-08-02T09:01:17.259Z,51.54
2022-08-02T09:03:44.965Z,52.54
2022-08-02T09:06:11.642Z,51.08
2022-08-02T09:08:38.193Z,51.74
2022-08-02T09:11:31.071Z,49.57
2022-08-02T09:14:04.974Z,50.49
2022-08-02T09:16:36.089Z,50.09
2022-08-02T09:19:26.499Z,49.82
2022-08-02T09:22:02.220Z,48.95
2022-08-02T09:24:31.726Z,46.02
2022-08-02T09:26:58.630Z,45.54
2022-08-02T09:29:26.375Z,45.98
2022-08-02T09:32:02.973Z,45.43
2022-08-02T09:34:55.914Z,45.38
2022-08-02T09:37:24.522Z,45.56
2022-08-02T09:39:51.278Z,45.56
2022-08-02T09:42:25.068Z,47.36
2022-08-02T09:45:01.895Z,48.38
2022-08-02T09:47:30.973Z,48.14
2022-08-02T09:49:58.558Z,47.50
2022-08-02T09:52:36.989Z,48.46
2022-08-02T09:55:11.414Z,47.59
2022-08-02T09:57:38.959Z,47.48
2022-08-02T10:00:14.004Z,47.50
2022-08-02T10:03:22.061Z,47.83
2022-08-02T10:05:55.941Z,48.09
2022-08-02T10:08:33.125Z,49.03
2022-08-02T10:11:01.146Z,47.88
2022-08-02T10:13:33.213Z,47.47
2022-08-02T10:16:00.581Z,46.39
2022-08-02T10:18:42.529Z,46.49
2022-08-02T10:21:22.559Z,46.97
2022-08-02T10:23:50.434Z,45.52
2022-08-02T10:26:19.450Z,45.43
2022-08-02T10:28:49.654Z,44.08
2022-08-02T10:31:21.134Z,43.57
2022-08-02T10:33:50.441Z,44.29
2022-08-02T10:36:19.281Z,42.42
2022-08-02T10:38:46.913Z,41.65
2022-08-02T10:41:13.625Z,42.44
2022-08-02T10:43:43.136Z,41.39
2022-08-02T10:46:28.028Z,41.47
2022-08-02T10:49:38.754Z,39.74
2022-08-02T10:52:06.553Z,40.96
2022-08-02T10:54:36.751Z,39.07
2022-08-02T10:57:15.219Z,39.92
2022-08-02T10:59:42.110Z,39.41
2022-08-02T11:02:16.832Z,39.49
2022-08-02T11:04:43.618Z,38.38
2022-08-02T11:07:16.988Z,39.86
2022-08-02T11:09:45.624Z,40.37
2022-08-02T11:12:17.232Z,41.19
2022-08-02T11:14:46.385Z,42.25
2022-08-02T11:17:18.248Z,42.19
2022-08-02T11:20:13.816Z,42.38
2022-08-02T11:22:41.867Z,41.90
2022-08-02T11:25:23.917Z,42.63
2022-08-02T11:28:08.630Z,42.52
2022-08-02T11:30:35.628Z,42.49
2022-08-02T11:33:02.331Z,42.09
2022-08-02T11:35:37.795Z,41.00
2022-08-02T11:38:19.238Z,37.84
2022-08-02T11:40:47.522Z,39.19
2022-08-02T11:43:32.308Z,37.62
2022-08-02T11:46:05.513Z,37.96
2022-08-02T11:48:38.385Z,38.50
2022-08-02T11:51:18.196Z,36.22
2022-08-02T11:53:52.916Z,35.20
2022-08-02T11:56:27.087Z,36.40
2022-08-02T11:59:10.988Z,38.11
2022-08-02T12:01:45.726Z,38.27
2022-08-02T12:04:18.094Z,38.07
2022-08-02T12:06:53.524Z,37.97
2022-08-02T12:09:20.120Z,39.19
2022-08-02T12:11:50.947Z,38.01
2022-08-02T12:14:18.945Z,38.72
2022-08-02T12:17:04.614Z,39.01
2022-08-02T12:19:33.337Z,36.90
2022-08-02T12:22:11.989Z,37.76
2022-08-02T12:24:40.432Z,36.95
2022-08-02T12:27:07.857Z,36.53
2022-08-02T12:29:58.769Z,36.48
2022-08-02T12:32:25.133Z,37.34
2022-08-02T12:35:26.468Z,37.68
2022-08-02T12:37:53.969Z,36.66
2022-08-02T12:40:31.666Z,34.86
2022-08-02T12:43:05.233Z,35.67
2022-08-02T12:45:53.383Z,35.11
2022-08-02T12:48:48.116Z,36.63
2022-08-02T12:51:25.712Z,36.37
2022-08-02T12:54:23.008Z,35.66
2022-08-02T12:56:58.057Z,34.96
2022-08-02T12:59:38.485Z,34.41
2022-08-02T13:02:10.333Z,36.20
2022-08-02T13:04:37.786Z,37.71
2022-08-02T13:07:05.268Z,38.11
2022-08-02T13:09:44.314Z,36.74
2022-08-02T13:12:11.903Z,36.76
2022-08-02T13:14:41.745Z,36.66
2022-08-02T13:17:09.813Z,35.88
2022-08-02T13:19:37.065Z,35.61
2022-08-02T13:22:04.256Z,36.82
2022-08-02T13:24:40.201Z,36.92
2022-08-02T13:27:20.850Z,36.76
2022-08-02T13:29:48.794Z,36.46
2022-08-02T13:32:15.651Z,36.59
2022-08-02T13:34:42.796Z,35.88
2022-08-02T13:37:09.407Z,36.65
2022-08-02T13:39:36.059Z,35.45
2022-08-02T13:42:02.842Z,37.14
2022-08-02T13:44:29.424Z,36.84
2022-08-02T13:46:56.395Z,36.14
2022-08-02T13:49:49.934Z,37.09
2022-08-02T13:52:11.386Z,37.19
2022-08-02T13:54:38.170Z,35.71
2022-08-02T13:57:04.901Z,35.80
2022-08-02T13:59:56.906Z,35.59
2022-08-02T14:02:18.624Z,36.45
2022-08-02T14:04:45.435Z,36.59
2022-08-02T14:07:12.306Z,38.06
2022-08-02T14:09:39.058Z,37.84
2022-08-02T14:12:10.526Z,36.29
2022-08-02T14:14:37.899Z,36.71
2022-08-02T14:17:04.747Z,35.66
2022-08-02T14:19:31.388Z,35.85
2022-08-02T14:22:11.412Z,35.96
2022-08-02T14:24:39.542Z,37.27
2022-08-02T14:27:06.417Z,36.05
2022-08-02T14:29:33.243Z,35.46
2022-08-02T14:32:00.265Z,35.90
2022-08-02T14:34:27.603Z,36.74
2022-08-02T14:36:55.772Z,36.69
2022-08-02T14:39:22.650Z,35.75
2022-08-02T14:41:59.743Z,35.01
2022-08-02T14:44:27.987Z,37.73
2022-08-02T14:46:55.086Z,37.53
2022-08-02T14:49:25.447Z,38.86
2022-08-02T14:51:53.293Z,37.77
2022-08-02T14:54:19.953Z,37.61
2022-08-02T14:56:46.674Z,38.27
2022-08-02T14:59:15.514Z,37.88
2022-08-02T15:01:42.118Z,38.50
2022-08-02T15:04:08.714Z,37.88
2022-08-02T15:06:35.294Z,38.64
2022-08-02T15:09:01.906Z,37.54
2022-08-02T15:11:28.750Z,37.72
2022-08-02T15:13:55.386Z,37.83
2022-08-02T15:16:47.234Z,37.65
2022-08-02T15:19:12.818Z,36.98
2022-08-02T15:21:41.367Z,37.26
2022-08-02T15:24:08.819Z,38.09
2022-08-02T15:26:35.457Z,37.35
2022-08-02T15:29:02.114Z,37.20
2022-08-02T15:31:33.132Z,37.65
2022-08-02T15:34:02.545Z,38.03
2022-08-02T15:36:29.644Z,38.36
2022-08-02T15:38:57.514Z,37.73
2022-08-02T15:41:24.360Z,36.92
2022-08-02T15:44:00.685Z,36.27
2022-08-02T15:46:32.151Z,37.10
2022-08-02T15:48:59.510Z,37.08
2022-08-02T15:51:27.027Z,36.78
2022-08-02T15:53:53.786Z,36.90
2022-08-02T15:56:21.983Z,37.36
2022-08-02T15:58:51.882Z,36.92
2022-08-02T16:01:24.041Z,37.17
2022-08-02T16:03:50.972Z,36.71
2022-08-02T16:06:17.650Z,36.57
2022-08-02T16:08:53.623Z,37.36
2022-08-02T16:11:22.298Z,37.31
2022-08-02T16:13:55.055Z,38.48
2022-08-02T16:16:31.475Z,37.69
2022-08-02T16:18:58.592Z,37.43
2022-08-02T16:21:25.512Z,37.13
2022-08-02T16:23:59.093Z,36.80
2022-08-02T16:26:30.012Z,37.00
2022-08-02T16:28:57.520Z,36.13
2022-08-02T16:31:24.226Z,35.41
2022-08-02T16:33:56.177Z,34.40
2022-08-02T16:36:24.760Z,34.44
2022-08-02T16:42:39.384Z,34.42
2022-08-02T16:45:19.915Z,34.16
2022-08-02T16:47:57.496Z,33.31
2022-08-02T16:50:28.757Z,32.80
2022-08-02T16:52:58.968Z,33.39
2022-08-02T16:55:26.205Z,33.37
2022-08-02T16:57:57.233Z,33.57
2022-08-02T17:00:24.250Z,35.29
2022-08-02T17:02:50.830Z,35.68
2022-08-02T17:05:18.877Z,34.41
2022-08-02T17:08:07.694Z,34.09
2022-08-02T17:10:34.553Z,34.57
2022-08-02T17:13:11.631Z,34.98
2022-08-02T17:16:08.228Z,34.51
2022-08-02T17:18:26.737Z,33.82
2022-08-02T17:20:53.887Z,33.64
2022-08-02T17:23:20.541Z,36.11
2022-08-02T17:25:50.303Z,37.72
2022-08-02T17:28:19.403Z,37.99
2022-08-02T17:30:46.076Z,38.85
2022-08-02T17:33:13.270Z,39.38
2022-08-02T17:35:51.978Z,39.76
2022-08-02T17:38:26.119Z,39.18
2022-08-02T17:40:54.653Z,40.56
2022-08-02T17:46:08.029Z,40.90
2022-08-02T17:48:54.965Z,41.10
2022-08-02T17:52:15.256Z,41.41
2022-08-02T17:54:09.142Z,40.61
2022-08-02T17:56:37.015Z,40.68
2022-08-02T17:59:31.211Z,41.18
2022-08-02T18:02:09.406Z,41.34
2022-08-02T18:04:38.044Z,41.40
2022-08-02T18:07:09.456Z,41.64
2022-08-02T18:09:37.094Z,41.80
2022-08-02T18:12:03.829Z,41.86
2022-08-02T18:14:30.582Z,42.05
2022-08-02T18:16:57.400Z,42.31
2022-08-02T18:19:24.057Z,42.50
2022-08-02T18:22:09.812Z,42.47
2022-08-02T18:24:38.122Z,43.20
2022-08-02T18:27:04.788Z,43.33
2022-08-02T18:29:38.596Z,43.57
2022-08-02T18:32:06.159Z,43.46
2022-08-02T18:34:39.211Z,43.93
2022-08-02T18:37:06.879Z,43.99
2022-08-02T18:39:35.112Z,44.32
2022-08-02T18:42:05.265Z,44.12
2022-08-02T18:44:31.851Z,44.42
2022-08-02T18:46:58.483Z,44.51
2022-08-02T18:49:42.922Z,44.86
2022-08-02T18:52:15.248Z,44.73
2022-08-02T18:54:42.234Z,45.07
2022-08-02T18:57:58.917Z,45.23
2022-08-02T18:59:57.404Z,45.58
2022-08-02T19:02:24.933Z,45.76
2022-08-02T19:04:54.586Z,45.97
2022-08-02T19:07:22.503Z,46.38
2022-08-02T19:09:49.666Z,46.53
2022-08-02T19:12:27.804Z,46.68
2022-08-02T19:14:55.457Z,47.07
2022-08-02T19:17:54.432Z,47.01
2022-08-02T19:20:10.520Z,47.59
2022-08-02T19:22:46.410Z,47.89
2022-08-02T19:25:15.964Z,48.23
2022-08-02T19:27:42.712Z,48.40
2022-08-02T19:30:15.129Z,48.49
2022-08-02T19:32:59.540Z,48.31
2022-08-02T19:35:30.714Z,48.71
2022-08-02T19:38:09.451Z,48.58
2022-08-02T19:40:37.463Z,49.89
2022-08-02T19:44:21.132Z,50.53
2022-08-02T19:45:52.195Z,51.17
2022-08-02T19:48:25.574Z,51.73
2022-08-02T19:50:56.699Z,51.71
2022-08-02T19:53:28.570Z,52.59
2022-08-02T19:55:59.487Z,52.93
2022-08-02T19:58:28.439Z,53.46
2022-08-02T20:00:55.066Z,53.61
2022-08-02T20:03:52.580Z,53.88
2022-08-02T20:06:08.650Z,53.56
2022-08-02T20:08:37.498Z,54.05
2022-08-02T20:11:04.252Z,53.93
2022-08-02T20:13:34.731Z,54.07
2022-08-02T20:16:20.752Z,54.29
2022-08-02T20:18:55.630Z,54.35
2022-08-02T20:21:35.434Z,54.88
2022-08-02T20:24:05.973Z,54.66
2022-08-02T20:26:32.711Z,54.73
2022-08-02T20:29:03.637Z,55.26
2022-08-02T20:31:30.624Z,55.24
2022-08-02T20:33:57.432Z,55.44
2022-08-02T20:36:26.420Z,55.66
2022-08-02T20:38:54.467Z,56.00
2022-08-02T20:41:22.402Z,55.94
2022-08-02T20:43:49.640Z,56.05
2022-08-02T20:46:16.359Z,55.92
2022-08-02T20:48:44.928Z,56.05
2022-08-02T20:51:12.672Z,56.20
2022-08-02T20:53:54.749Z,56.33
2022-08-02T20:56:27.537Z,56.42
2022-08-02T20:58:54.141Z,56.20
2022-08-02T21:01:36.898Z,56.41
2022-08-02T21:04:04.145Z,56.25
2022-08-02T21:06:31.195Z,56.12
2022-08-02T21:08:58.716Z,56.10
2022-08-02T21:11:33.491Z,56.02
2022-08-02T21:14:07.609Z,55.80
2022-08-02T21:16:36.157Z,55.82
2022-08-02T21:19:02.978Z,55.83
2022-08-02T21:21:34.797Z,55.80
2022-08-02T21:24:01.657Z,55.28
2022-08-02T21:26:30.537Z,54.27
2022-08-02T21:29:03.140Z,54.45
2022-08-02T21:31:45.486Z,54.09
2022-08-02T21:34:26.453Z,54.15
2022-08-02T21:36:54.311Z,54.37
2022-08-02T21:39:20.908Z,55.07
2022-08-02T21:41:47.948Z,54.61
2022-08-02T21:44:19.337Z,54.79
2022-08-02T21:50:08.735Z,54.63
2022-08-02T21:55:09.623Z,54.71
2022-08-02T21:57:41.617Z,54.55
2022-08-02T22:00:11.702Z,55.16
2022-08-02T22:02:38.437Z,55.27
2022-08-02T22:05:05.434Z,56.26
2022-08-02T22:07:40.980Z,56.76
2022-08-02T22:10:12.312Z,57.08
2022-08-02T22:12:39.336Z,57.41
2022-08-02T22:15:10.476Z,57.58
2022-08-02T22:17:51.964Z,57.83
2022-08-02T22:20:21.345Z,57.67
2022-08-02T22:22:52.261Z,56.95
2022-08-02T22:25:26.722Z,56.27
2022-08-02T22:28:35.533Z,55.70
2022-08-02T22:30:52.981Z,55.59
2022-08-02T22:33:42.444Z,55.11
2022-08-02T22:36:14.842Z,55.35
2022-08-02T22:38:45.586Z,55.67
2022-08-02T22:41:13.723Z,55.89
2022-08-02T22:43:41.587Z,56.04
2022-08-02T22:46:09.404Z,56.21
2022-08-02T22:48:36.238Z,56.18
2022-08-02T22:51:06.935Z,56.43
2022-08-02T22:53:35.523Z,55.97
2022-08-02T22:56:02.927Z,56.53
2022-08-02T22:58:29.489Z,56.73
2022-08-02T22:58:49.221Z,40.51
2022-08-02T22:59:10.287Z,54.89
2022-08-02T22:59:10.572Z,54.50
2022-08-02T23:00:56.078Z,56.82
2022-08-02T23:03:22.658Z,57.22
2022-08-02T23:05:50.045Z,57.21
2022-08-02T23:08:16.849Z,57.51
2022-08-02T23:10:43.583Z,57.30
2022-08-02T23:13:10.172Z,57.74
2022-08-02T23:15:58.950Z,57.53
2022-08-02T23:18:44.735Z,57.35
2022-08-02T23:21:11.785Z,57.04
2022-08-02T23:23:38.532Z,57.16
2022-08-02T23:26:05.290Z,57.50
2022-08-02T23:28:31.927Z,58.15
2022-08-02T23:30:58.535Z,58.59
2022-08-02T23:33:25.243Z,58.82
2022-08-02T23:35:51.791Z,59.26
2022-08-02T23:38:18.385Z,59.44
2022-08-02T23:40:45.044Z,59.71
2022-08-02T23:43:14.448Z,59.10
2022-08-02T23:45:46.091Z,58.58
2022-08-02T23:48:13.243Z,58.79
2022-08-02T23:50:39.847Z,59.36
2022-08-02T23:53:06.667Z,59.78
2022-08-02T23:55:33.274Z,60.04
2022-08-02T23:57:59.888Z,59.81
